sensor_id;sensor_type;location;lat;lon;timestamp;P1;durP1;ratioP1;P2;durP2;ratioP2
12880;SDS011;6508;53.786;9.996;2023-04-25T00:00:23;13.85;;;6.00;;
12880;SDS011;6508;53.786;9.996;2023-04-25T00:02:51;14.77;;;6.32;;
12880;SDS011;6508;53.786;9.996;2023-04-25T00:05:19;18.45;;;6.68;;
12880;SDS011;6508;53.786;9.996;2023-04-25T00:07:50;13.82;;;6.15;;
12880;SDS011;6508;53.786;9.996;2023-04-25T00:10:18;12.48;;;5.68;;
12880;SDS011;6508;53.786;9.996;2023-04-25T00:12:45;17.42;;;7.38;;
12880;SDS011;6508;53.786;9.996;2023-04-25T00:15:15;19.13;;;5.28;;
12880;SDS011;6508;53.786;9.996;2023-04-25T00:17:44;17.40;;;5.60;;
12880;SDS011;6508;53.786;9.996;2023-04-25T00:20:12;14.32;;;5.38;;
12880;SDS011;6508;53.786;9.996;2023-04-25T00:22:41;20.40;;;6.40;;
12880;SDS011;6508;53.786;9.996;2023-04-25T00:25:09;18.15;;;6.78;;
12880;SDS011;6508;53.786;9.996;2023-04-25T00:27:37;17.40;;;6.05;;
12880;SDS011;6508;53.786;9.996;2023-04-25T00:30:05;22.27;;;6.10;;
12880;SDS011;6508;53.786;9.996;2023-04-25T00:32:37;12.05;;;5.53;;
12880;SDS011;6508;53.786;9.996;2023-04-25T00:35:05;17.98;;;5.82;;
12880;SDS011;6508;53.786;9.996;2023-04-25T00:37:33;14.73;;;5.93;;
12880;SDS011;6508;53.786;9.996;2023-04-25T00:40:01;12.57;;;4.97;;
12880;SDS011;6508;53.786;9.996;2023-04-25T00:42:30;13.88;;;5.20;;
12880;SDS011;6508;53.786;9.996;2023-04-25T00:44:58;21.95;;;6.00;;
12880;SDS011;6508;53.786;9.996;2023-04-25T00:47:26;12.35;;;5.35;;
12880;SDS011;6508;53.786;9.996;2023-04-25T00:49:57;15.57;;;5.28;;
12880;SDS011;6508;53.786;9.996;2023-04-25T00:52:24;17.25;;;5.20;;
12880;SDS011;6508;53.786;9.996;2023-04-25T00:54:52;12.35;;;5.45;;
12880;SDS011;6508;53.786;9.996;2023-04-25T00:57:20;23.35;;;5.57;;
12880;SDS011;6508;53.786;9.996;2023-04-25T00:59:48;17.50;;;5.38;;
12880;SDS011;6508;53.786;9.996;2023-04-25T01:02:18;21.80;;;5.45;;
12880;SDS011;6508;53.786;9.996;2023-04-25T01:04:47;21.08;;;5.43;;
12880;SDS011;6508;53.786;9.996;2023-04-25T01:07:17;23.45;;;5.78;;
12880;SDS011;6508;53.786;9.996;2023-04-25T01:09:46;14.43;;;5.93;;
12880;SDS011;6508;53.786;9.996;2023-04-25T01:12:14;21.50;;;5.72;;
12880;SDS011;6508;53.786;9.996;2023-04-25T01:14:42;20.08;;;5.38;;
12880;SDS011;6508;53.786;9.996;2023-04-25T01:17:10;22.75;;;5.72;;
12880;SDS011;6508;53.786;9.996;2023-04-25T01:19:38;17.23;;;5.93;;
12880;SDS011;6508;53.786;9.996;2023-04-25T01:22:08;25.50;;;5.97;;
12880;SDS011;6508;53.786;9.996;2023-04-25T01:24:37;19.42;;;5.68;;
12880;SDS011;6508;53.786;9.996;2023-04-25T01:27:05;20.67;;;5.53;;
12880;SDS011;6508;53.786;9.996;2023-04-25T01:29:33;19.73;;;5.75;;
12880;SDS011;6508;53.786;9.996;2023-04-25T01:32:02;20.13;;;6.65;;
12880;SDS011;6508;53.786;9.996;2023-04-25T01:34:30;23.30;;;5.95;;
12880;SDS011;6508;53.786;9.996;2023-04-25T01:36:59;21.67;;;6.05;;
12880;SDS011;6508;53.786;9.996;2023-04-25T01:39:29;23.80;;;5.82;;
12880;SDS011;6508;53.786;9.996;2023-04-25T01:41:58;22.08;;;6.05;;
12880;SDS011;6508;53.786;9.996;2023-04-25T01:44:26;19.65;;;6.00;;
12880;SDS011;6508;53.786;9.996;2023-04-25T01:46:55;14.95;;;6.60;;
12880;SDS011;6508;53.786;9.996;2023-04-25T01:49:25;21.92;;;6.00;;
12880;SDS011;6508;53.786;9.996;2023-04-25T01:51:53;17.13;;;5.82;;
12880;SDS011;6508;53.786;9.996;2023-04-25T01:54:21;14.55;;;4.78;;
12880;SDS011;6508;53.786;9.996;2023-04-25T01:56:51;13.27;;;5.10;;
12880;SDS011;6508;53.786;9.996;2023-04-25T01:59:20;15.35;;;4.88;;
12880;SDS011;6508;53.786;9.996;2023-04-25T02:02:00;10.70;;;4.22;;
12880;SDS011;6508;53.786;9.996;2023-04-25T02:04:31;16.98;;;5.20;;
12880;SDS011;6508;53.786;9.996;2023-04-25T02:07:00;18.35;;;6.32;;
12880;SDS011;6508;53.786;9.996;2023-04-25T02:09:37;11.88;;;4.43;;
12880;SDS011;6508;53.786;9.996;2023-04-25T02:12:09;15.00;;;4.88;;
12880;SDS011;6508;53.786;9.996;2023-04-25T02:14:56;12.98;;;4.85;;
12880;SDS011;6508;53.786;9.996;2023-04-25T02:17:47;14.10;;;5.47;;
12880;SDS011;6508;53.786;9.996;2023-04-25T02:20:15;15.52;;;5.57;;
12880;SDS011;6508;53.786;9.996;2023-04-25T02:22:43;13.45;;;4.25;;
12880;SDS011;6508;53.786;9.996;2023-04-25T02:25:11;10.93;;;4.35;;
12880;SDS011;6508;53.786;9.996;2023-04-25T02:27:41;19.40;;;4.35;;
12880;SDS011;6508;53.786;9.996;2023-04-25T02:30:09;9.90;;;4.60;;
12880;SDS011;6508;53.786;9.996;2023-04-25T02:32:37;18.40;;;5.28;;
12880;SDS011;6508;53.786;9.996;2023-04-25T02:35:06;13.07;;;5.13;;
12880;SDS011;6508;53.786;9.996;2023-04-25T02:37:34;16.00;;;4.97;;
12880;SDS011;6508;53.786;9.996;2023-04-25T02:40:04;14.60;;;4.85;;
12880;SDS011;6508;53.786;9.996;2023-04-25T02:42:33;13.85;;;4.80;;
12880;SDS011;6508;53.786;9.996;2023-04-25T02:45:02;13.38;;;4.28;;
12880;SDS011;6508;53.786;9.996;2023-04-25T02:47:30;7.57;;;3.83;;
12880;SDS011;6508;53.786;9.996;2023-04-25T02:49:58;12.43;;;4.45;;
12880;SDS011;6508;53.786;9.996;2023-04-25T02:52:27;14.88;;;4.35;;
12880;SDS011;6508;53.786;9.996;2023-04-25T02:55:02;18.50;;;4.93;;
12880;SDS011;6508;53.786;9.996;2023-04-25T02:57:32;14.35;;;4.78;;
12880;SDS011;6508;53.786;9.996;2023-04-25T03:00:02;15.02;;;5.03;;
12880;SDS011;6508;53.786;9.996;2023-04-25T03:02:32;10.73;;;4.88;;
12880;SDS011;6508;53.786;9.996;2023-04-25T03:05:00;10.02;;;4.30;;
12880;SDS011;6508;53.786;9.996;2023-04-25T03:07:29;14.43;;;4.20;;
12880;SDS011;6508;53.786;9.996;2023-04-25T03:09:58;13.00;;;4.68;;
12880;SDS011;6508;53.786;9.996;2023-04-25T03:12:26;13.40;;;5.00;;
12880;SDS011;6508;53.786;9.996;2023-04-25T03:14:54;16.98;;;5.97;;
12880;SDS011;6508;53.786;9.996;2023-04-25T03:17:24;13.18;;;4.78;;
12880;SDS011;6508;53.786;9.996;2023-04-25T03:19:51;14.57;;;4.75;;
12880;SDS011;6508;53.786;9.996;2023-04-25T03:22:19;14.93;;;5.55;;
12880;SDS011;6508;53.786;9.996;2023-04-25T03:24:47;14.55;;;5.10;;
12880;SDS011;6508;53.786;9.996;2023-04-25T03:27:15;15.90;;;5.25;;
12880;SDS011;6508;53.786;9.996;2023-04-25T03:29:43;14.00;;;4.90;;
12880;SDS011;6508;53.786;9.996;2023-04-25T03:32:12;14.30;;;4.90;;
12880;SDS011;6508;53.786;9.996;2023-04-25T03:34:42;14.85;;;4.47;;
12880;SDS011;6508;53.786;9.996;2023-04-25T03:37:10;14.93;;;4.53;;
12880;SDS011;6508;53.786;9.996;2023-04-25T03:39:39;14.70;;;4.40;;
12880;SDS011;6508;53.786;9.996;2023-04-25T03:42:08;17.05;;;4.88;;
12880;SDS011;6508;53.786;9.996;2023-04-25T03:44:35;14.75;;;5.07;;
12880;SDS011;6508;53.786;9.996;2023-04-25T03:47:03;12.20;;;4.63;;
12880;SDS011;6508;53.786;9.996;2023-04-25T03:49:33;18.25;;;4.40;;
12880;SDS011;6508;53.786;9.996;2023-04-25T03:52:05;10.80;;;4.53;;
12880;SDS011;6508;53.786;9.996;2023-04-25T03:54:37;19.85;;;5.00;;
12880;SDS011;6508;53.786;9.996;2023-04-25T03:57:11;12.93;;;4.55;;
12880;SDS011;6508;53.786;9.996;2023-04-25T03:59:39;8.60;;;4.70;;
12880;SDS011;6508;53.786;9.996;2023-04-25T04:02:09;11.57;;;5.03;;
12880;SDS011;6508;53.786;9.996;2023-04-25T04:04:38;8.82;;;4.75;;
12880;SDS011;6508;53.786;9.996;2023-04-25T04:07:08;12.70;;;5.30;;
12880;SDS011;6508;53.786;9.996;2023-04-25T04:09:39;20.25;;;5.38;;
12880;SDS011;6508;53.786;9.996;2023-04-25T04:12:14;10.82;;;4.55;;
12880;SDS011;6508;53.786;9.996;2023-04-25T04:14:42;13.07;;;5.18;;
12880;SDS011;6508;53.786;9.996;2023-04-25T04:17:11;13.98;;;4.50;;
12880;SDS011;6508;53.786;9.996;2023-04-25T04:19:38;11.68;;;5.30;;
12880;SDS011;6508;53.786;9.996;2023-04-25T04:22:19;11.35;;;4.50;;
12880;SDS011;6508;53.786;9.996;2023-04-25T04:24:48;12.05;;;4.70;;
12880;SDS011;6508;53.786;9.996;2023-04-25T04:27:21;9.38;;;5.05;;
12880;SDS011;6508;53.786;9.996;2023-04-25T04:29:53;10.95;;;5.10;;
12880;SDS011;6508;53.786;9.996;2023-04-25T04:32:25;10.77;;;4.78;;
12880;SDS011;6508;53.786;9.996;2023-04-25T04:34:54;13.23;;;5.10;;
12880;SDS011;6508;53.786;9.996;2023-04-25T04:37:25;9.75;;;5.13;;
12880;SDS011;6508;53.786;9.996;2023-04-25T04:39:52;13.32;;;5.25;;
12880;SDS011;6508;53.786;9.996;2023-04-25T04:42:29;9.57;;;4.70;;
12880;SDS011;6508;53.786;9.996;2023-04-25T04:45:05;12.82;;;5.20;;
12880;SDS011;6508;53.786;9.996;2023-04-25T04:48:00;9.73;;;4.97;;
12880;SDS011;6508;53.786;9.996;2023-04-25T04:50:31;8.13;;;5.20;;
12880;SDS011;6508;53.786;9.996;2023-04-25T04:53:21;10.25;;;5.22;;
12880;SDS011;6508;53.786;9.996;2023-04-25T04:56:16;9.55;;;4.65;;
12880;SDS011;6508;53.786;9.996;2023-04-25T04:58:52;9.00;;;4.70;;
12880;SDS011;6508;53.786;9.996;2023-04-25T05:01:33;11.68;;;5.78;;
12880;SDS011;6508;53.786;9.996;2023-04-25T05:04:13;8.73;;;5.38;;
12880;SDS011;6508;53.786;9.996;2023-04-25T05:07:01;8.68;;;5.38;;
12880;SDS011;6508;53.786;9.996;2023-04-25T05:09:40;9.07;;;4.90;;
12880;SDS011;6508;53.786;9.996;2023-04-25T05:12:32;8.95;;;5.20;;
12880;SDS011;6508;53.786;9.996;2023-04-25T05:15:30;8.30;;;4.20;;
12880;SDS011;6508;53.786;9.996;2023-04-25T05:17:58;8.18;;;5.22;;
12880;SDS011;6508;53.786;9.996;2023-04-25T05:20:41;10.10;;;5.40;;
12880;SDS011;6508;53.786;9.996;2023-04-25T05:23:27;12.95;;;5.30;;
12880;SDS011;6508;53.786;9.996;2023-04-25T05:26:05;6.60;;;4.13;;
12880;SDS011;6508;53.786;9.996;2023-04-25T05:28:52;9.57;;;3.85;;
12880;SDS011;6508;53.786;9.996;2023-04-25T05:31:38;6.57;;;3.22;;
12880;SDS011;6508;53.786;9.996;2023-04-25T05:34:10;4.40;;;3.30;;
12880;SDS011;6508;53.786;9.996;2023-04-25T05:36:44;4.85;;;3.10;;
12880;SDS011;6508;53.786;9.996;2023-04-25T05:39:14;5.40;;;3.00;;
12880;SDS011;6508;53.786;9.996;2023-04-25T05:42:03;12.77;;;3.00;;
12880;SDS011;6508;53.786;9.996;2023-04-25T05:45:06;9.13;;;3.03;;
12880;SDS011;6508;53.786;9.996;2023-04-25T05:47:58;10.73;;;3.28;;
12880;SDS011;6508;53.786;9.996;2023-04-25T05:50:37;11.10;;;3.58;;
12880;SDS011;6508;53.786;9.996;2023-04-25T05:53:32;8.23;;;3.67;;
12880;SDS011;6508;53.786;9.996;2023-04-25T05:56:01;12.75;;;4.57;;
12880;SDS011;6508;53.786;9.996;2023-04-25T05:58:31;6.97;;;4.55;;
12880;SDS011;6508;53.786;9.996;2023-04-25T06:01:00;10.48;;;3.60;;
12880;SDS011;6508;53.786;9.996;2023-04-25T06:03:29;6.50;;;3.80;;
12880;SDS011;6508;53.786;9.996;2023-04-25T06:05:57;13.00;;;3.97;;
12880;SDS011;6508;53.786;9.996;2023-04-25T06:08:25;8.57;;;4.85;;
12880;SDS011;6508;53.786;9.996;2023-04-25T06:10:53;8.82;;;4.50;;
12880;SDS011;6508;53.786;9.996;2023-04-25T06:13:22;10.48;;;5.32;;
12880;SDS011;6508;53.786;9.996;2023-04-25T06:15:51;8.73;;;4.07;;
12880;SDS011;6508;53.786;9.996;2023-04-25T06:18:20;8.95;;;3.90;;
12880;SDS011;6508;53.786;9.996;2023-04-25T06:20:48;9.52;;;4.43;;
12880;SDS011;6508;53.786;9.996;2023-04-25T06:23:17;10.60;;;3.75;;
12880;SDS011;6508;53.786;9.996;2023-04-25T06:25:58;11.20;;;3.95;;
12880;SDS011;6508;53.786;9.996;2023-04-25T06:28:27;12.27;;;4.35;;
12880;SDS011;6508;53.786;9.996;2023-04-25T06:30:56;8.88;;;4.03;;
12880;SDS011;6508;53.786;9.996;2023-04-25T06:33:24;6.22;;;3.78;;
12880;SDS011;6508;53.786;9.996;2023-04-25T06:35:54;7.80;;;3.55;;
12880;SDS011;6508;53.786;9.996;2023-04-25T06:38:26;7.18;;;3.75;;
12880;SDS011;6508;53.786;9.996;2023-04-25T06:40:56;7.38;;;3.60;;
12880;SDS011;6508;53.786;9.996;2023-04-25T06:43:26;8.02;;;3.28;;
12880;SDS011;6508;53.786;9.996;2023-04-25T06:46:10;5.05;;;2.67;;
12880;SDS011;6508;53.786;9.996;2023-04-25T06:48:43;4.15;;;2.75;;
12880;SDS011;6508;53.786;9.996;2023-04-25T06:51:12;3.90;;;2.40;;
12880;SDS011;6508;53.786;9.996;2023-04-25T06:53:41;4.78;;;2.58;;
12880;SDS011;6508;53.786;9.996;2023-04-25T06:56:16;5.07;;;2.97;;
12880;SDS011;6508;53.786;9.996;2023-04-25T06:58:51;4.13;;;3.35;;
12880;SDS011;6508;53.786;9.996;2023-04-25T07:01:25;6.30;;;3.10;;
12880;SDS011;6508;53.786;9.996;2023-04-25T07:03:53;6.53;;;3.38;;
12880;SDS011;6508;53.786;9.996;2023-04-25T07:06:22;5.45;;;2.83;;
12880;SDS011;6508;53.786;9.996;2023-04-25T07:08:53;10.10;;;3.50;;
12880;SDS011;6508;53.786;9.996;2023-04-25T07:11:22;5.63;;;3.00;;
12880;SDS011;6508;53.786;9.996;2023-04-25T07:13:50;3.70;;;2.97;;
12880;SDS011;6508;53.786;9.996;2023-04-25T07:16:18;5.90;;;3.10;;
12880;SDS011;6508;53.786;9.996;2023-04-25T07:18:47;3.78;;;2.65;;
12880;SDS011;6508;53.786;9.996;2023-04-25T07:21:15;4.93;;;3.35;;
12880;SDS011;6508;53.786;9.996;2023-04-25T07:23:44;4.22;;;3.72;;
12880;SDS011;6508;53.786;9.996;2023-04-25T07:26:16;5.00;;;3.20;;
12880;SDS011;6508;53.786;9.996;2023-04-25T07:29:06;3.72;;;3.00;;
12880;SDS011;6508;53.786;9.996;2023-04-25T07:31:34;5.45;;;3.33;;
12880;SDS011;6508;53.786;9.996;2023-04-25T07:34:03;9.43;;;3.45;;
12880;SDS011;6508;53.786;9.996;2023-04-25T07:36:31;6.82;;;3.80;;
12880;SDS011;6508;53.786;9.996;2023-04-25T07:38:59;8.32;;;3.13;;
12880;SDS011;6508;53.786;9.996;2023-04-25T07:41:27;5.30;;;3.22;;
12880;SDS011;6508;53.786;9.996;2023-04-25T07:43:55;9.52;;;3.60;;
12880;SDS011;6508;53.786;9.996;2023-04-25T07:46:24;3.70;;;3.33;;
12880;SDS011;6508;53.786;9.996;2023-04-25T07:48:52;7.22;;;3.58;;
12880;SDS011;6508;53.786;9.996;2023-04-25T07:51:22;9.27;;;3.95;;
12880;SDS011;6508;53.786;9.996;2023-04-25T07:53:52;5.05;;;2.67;;
12880;SDS011;6508;53.786;9.996;2023-04-25T07:56:20;7.65;;;3.45;;
12880;SDS011;6508;53.786;9.996;2023-04-25T07:58:48;7.22;;;3.40;;
12880;SDS011;6508;53.786;9.996;2023-04-25T08:01:18;7.15;;;3.05;;
12880;SDS011;6508;53.786;9.996;2023-04-25T08:03:52;5.53;;;3.67;;
12880;SDS011;6508;53.786;9.996;2023-04-25T08:06:28;4.68;;;3.40;;
12880;SDS011;6508;53.786;9.996;2023-04-25T08:09:06;10.95;;;4.53;;
12880;SDS011;6508;53.786;9.996;2023-04-25T08:11:38;10.90;;;3.80;;
12880;SDS011;6508;53.786;9.996;2023-04-25T08:14:08;6.90;;;3.80;;
12880;SDS011;6508;53.786;9.996;2023-04-25T08:16:37;5.97;;;3.67;;
12880;SDS011;6508;53.786;9.996;2023-04-25T08:19:05;4.75;;;3.45;;
12880;SDS011;6508;53.786;9.996;2023-04-25T08:21:35;5.82;;;3.03;;
12880;SDS011;6508;53.786;9.996;2023-04-25T08:24:07;3.38;;;3.00;;
12880;SDS011;6508;53.786;9.996;2023-04-25T08:26:37;5.90;;;3.08;;
12880;SDS011;6508;53.786;9.996;2023-04-25T08:29:06;5.75;;;2.72;;
12880;SDS011;6508;53.786;9.996;2023-04-25T08:31:38;9.57;;;2.78;;
12880;SDS011;6508;53.786;9.996;2023-04-25T08:34:07;4.15;;;2.40;;
12880;SDS011;6508;53.786;9.996;2023-04-25T08:36:50;5.68;;;2.53;;
12880;SDS011;6508;53.786;9.996;2023-04-25T08:39:23;5.72;;;2.50;;
12880;SDS011;6508;53.786;9.996;2023-04-25T08:42:09;3.38;;;3.13;;
12880;SDS011;6508;53.786;9.996;2023-04-25T08:44:39;6.00;;;2.78;;
12880;SDS011;6508;53.786;9.996;2023-04-25T08:47:07;5.47;;;2.90;;
12880;SDS011;6508;53.786;9.996;2023-04-25T08:49:43;3.95;;;2.60;;
12880;SDS011;6508;53.786;9.996;2023-04-25T08:52:16;6.03;;;2.83;;
12880;SDS011;6508;53.786;9.996;2023-04-25T08:54:49;8.40;;;3.00;;
12880;SDS011;6508;53.786;9.996;2023-04-25T08:57:18;5.93;;;3.35;;
12880;SDS011;6508;53.786;9.996;2023-04-25T08:59:47;3.33;;;3.00;;
12880;SDS011;6508;53.786;9.996;2023-04-25T09:02:15;5.20;;;2.70;;
12880;SDS011;6508;53.786;9.996;2023-04-25T09:04:47;4.35;;;2.72;;
12880;SDS011;6508;53.786;9.996;2023-04-25T09:07:17;6.18;;;2.83;;
12880;SDS011;6508;53.786;9.996;2023-04-25T09:09:48;7.10;;;2.47;;
12880;SDS011;6508;53.786;9.996;2023-04-25T09:12:19;3.75;;;2.53;;
12880;SDS011;6508;53.786;9.996;2023-04-25T09:15:06;5.78;;;2.90;;
12880;SDS011;6508;53.786;9.996;2023-04-25T09:17:55;3.35;;;2.28;;
12880;SDS011;6508;53.786;9.996;2023-04-25T09:20:25;4.03;;;2.38;;
12880;SDS011;6508;53.786;9.996;2023-04-25T09:23:04;3.55;;;2.95;;
12880;SDS011;6508;53.786;9.996;2023-04-25T09:25:36;3.47;;;3.13;;
12880;SDS011;6508;53.786;9.996;2023-04-25T09:28:07;3.42;;;3.13;;
12880;SDS011;6508;53.786;9.996;2023-04-25T09:30:36;3.53;;;2.92;;
12880;SDS011;6508;53.786;9.996;2023-04-25T09:33:28;3.03;;;2.72;;
12880;SDS011;6508;53.786;9.996;2023-04-25T09:36:02;5.25;;;3.20;;
12880;SDS011;6508;53.786;9.996;2023-04-25T09:38:51;3.28;;;3.03;;
12880;SDS011;6508;53.786;9.996;2023-04-25T09:41:27;5.63;;;3.45;;
12880;SDS011;6508;53.786;9.996;2023-04-25T09:43:59;6.10;;;4.05;;
12880;SDS011;6508;53.786;9.996;2023-04-25T09:46:33;5.57;;;3.05;;
12880;SDS011;6508;53.786;9.996;2023-04-25T09:49:06;4.82;;;3.10;;
12880;SDS011;6508;53.786;9.996;2023-04-25T09:51:53;5.78;;;3.20;;
12880;SDS011;6508;53.786;9.996;2023-04-25T09:54:24;5.47;;;3.30;;
12880;SDS011;6508;53.786;9.996;2023-04-25T09:57:04;5.82;;;2.90;;
12880;SDS011;6508;53.786;9.996;2023-04-25T09:59:39;6.38;;;3.00;;
12880;SDS011;6508;53.786;9.996;2023-04-25T10:02:10;6.63;;;3.53;;
12880;SDS011;6508;53.786;9.996;2023-04-25T10:04:39;4.63;;;2.92;;
12880;SDS011;6508;53.786;9.996;2023-04-25T10:07:19;5.55;;;2.90;;
12880;SDS011;6508;53.786;9.996;2023-04-25T10:09:49;3.85;;;3.38;;
12880;SDS011;6508;53.786;9.996;2023-04-25T10:12:22;3.67;;;2.83;;
12880;SDS011;6508;53.786;9.996;2023-04-25T10:14:50;4.55;;;2.92;;
12880;SDS011;6508;53.786;9.996;2023-04-25T10:17:20;7.15;;;3.38;;
12880;SDS011;6508;53.786;9.996;2023-04-25T10:19:48;7.72;;;3.65;;
12880;SDS011;6508;53.786;9.996;2023-04-25T10:22:17;6.05;;;3.10;;
12880;SDS011;6508;53.786;9.996;2023-04-25T10:24:47;4.13;;;2.80;;
12880;SDS011;6508;53.786;9.996;2023-04-25T10:27:17;8.32;;;2.88;;
12880;SDS011;6508;53.786;9.996;2023-04-25T10:29:45;4.28;;;2.50;;
12880;SDS011;6508;53.786;9.996;2023-04-25T10:32:30;10.65;;;2.83;;
12880;SDS011;6508;53.786;9.996;2023-04-25T10:35:06;4.68;;;3.05;;
12880;SDS011;6508;53.786;9.996;2023-04-25T10:37:37;5.75;;;2.80;;
12880;SDS011;6508;53.786;9.996;2023-04-25T10:40:11;5.43;;;2.63;;
12880;SDS011;6508;53.786;9.996;2023-04-25T10:42:40;7.75;;;2.80;;
12880;SDS011;6508;53.786;9.996;2023-04-25T10:45:08;3.28;;;1.90;;
12880;SDS011;6508;53.786;9.996;2023-04-25T10:47:38;4.80;;;1.77;;
12880;SDS011;6508;53.786;9.996;2023-04-25T10:50:11;5.53;;;2.08;;
12880;SDS011;6508;53.786;9.996;2023-04-25T10:52:42;4.03;;;2.03;;
12880;SDS011;6508;53.786;9.996;2023-04-25T10:55:11;3.05;;;2.05;;
12880;SDS011;6508;53.786;9.996;2023-04-25T10:57:40;6.90;;;2.70;;
12880;SDS011;6508;53.786;9.996;2023-04-25T11:00:09;3.28;;;2.40;;
12880;SDS011;6508;53.786;9.996;2023-04-25T11:02:42;3.55;;;2.95;;
12880;SDS011;6508;53.786;9.996;2023-04-25T11:05:22;4.22;;;2.72;;
12880;SDS011;6508;53.786;9.996;2023-04-25T11:08:07;3.90;;;2.70;;
12880;SDS011;6508;53.786;9.996;2023-04-25T11:10:40;4.38;;;2.50;;
12880;SDS011;6508;53.786;9.996;2023-04-25T11:13:08;6.00;;;2.70;;
12880;SDS011;6508;53.786;9.996;2023-04-25T11:15:35;4.43;;;2.92;;
12880;SDS011;6508;53.786;9.996;2023-04-25T11:18:04;4.95;;;2.63;;
12880;SDS011;6508;53.786;9.996;2023-04-25T11:20:35;4.53;;;2.58;;
12880;SDS011;6508;53.786;9.996;2023-04-25T11:23:04;6.35;;;2.65;;
12880;SDS011;6508;53.786;9.996;2023-04-25T11:25:31;3.53;;;2.50;;
12880;SDS011;6508;53.786;9.996;2023-04-25T11:28:05;4.35;;;3.15;;
12880;SDS011;6508;53.786;9.996;2023-04-25T11:30:33;6.07;;;4.07;;
12880;SDS011;6508;53.786;9.996;2023-04-25T11:33:00;5.32;;;3.80;;
12880;SDS011;6508;53.786;9.996;2023-04-25T11:35:30;8.60;;;4.05;;
12880;SDS011;6508;53.786;9.996;2023-04-25T11:38:00;4.97;;;3.65;;
12880;SDS011;6508;53.786;9.996;2023-04-25T11:40:28;4.57;;;2.90;;
12880;SDS011;6508;53.786;9.996;2023-04-25T11:42:59;3.17;;;2.58;;
12880;SDS011;6508;53.786;9.996;2023-04-25T11:45:29;4.38;;;2.58;;
12880;SDS011;6508;53.786;9.996;2023-04-25T11:47:58;2.78;;;2.45;;
12880;SDS011;6508;53.786;9.996;2023-04-25T11:50:26;3.88;;;2.40;;
12880;SDS011;6508;53.786;9.996;2023-04-25T11:52:56;7.28;;;2.20;;
12880;SDS011;6508;53.786;9.996;2023-04-25T11:55:24;4.55;;;2.33;;
12880;SDS011;6508;53.786;9.996;2023-04-25T11:57:52;2.47;;;2.28;;
12880;SDS011;6508;53.786;9.996;2023-04-25T12:00:21;5.75;;;2.78;;
12880;SDS011;6508;53.786;9.996;2023-04-25T12:02:52;7.30;;;2.28;;
12880;SDS011;6508;53.786;9.996;2023-04-25T12:05:23;5.88;;;1.90;;
12880;SDS011;6508;53.786;9.996;2023-04-25T12:08:11;2.15;;;1.85;;
12880;SDS011;6508;53.786;9.996;2023-04-25T12:10:41;7.68;;;2.13;;
12880;SDS011;6508;53.786;9.996;2023-04-25T12:13:19;3.08;;;2.08;;
12880;SDS011;6508;53.786;9.996;2023-04-25T12:15:48;3.55;;;2.13;;
12880;SDS011;6508;53.786;9.996;2023-04-25T12:18:19;2.30;;;2.10;;
12880;SDS011;6508;53.786;9.996;2023-04-25T12:20:48;2.90;;;2.47;;
12880;SDS011;6508;53.786;9.996;2023-04-25T12:23:17;2.55;;;2.03;;
12880;SDS011;6508;53.786;9.996;2023-04-25T12:25:44;7.35;;;2.25;;
12880;SDS011;6508;53.786;9.996;2023-04-25T12:28:13;4.63;;;2.67;;
12880;SDS011;6508;53.786;9.996;2023-04-25T12:30:52;4.00;;;2.50;;
12880;SDS011;6508;53.786;9.996;2023-04-25T12:33:22;3.75;;;2.55;;
12880;SDS011;6508;53.786;9.996;2023-04-25T12:35:50;3.92;;;2.20;;
12880;SDS011;6508;53.786;9.996;2023-04-25T12:38:22;3.70;;;2.42;;
12880;SDS011;6508;53.786;9.996;2023-04-25T12:40:50;5.65;;;2.40;;
12880;SDS011;6508;53.786;9.996;2023-04-25T12:43:18;3.38;;;2.10;;
12880;SDS011;6508;53.786;9.996;2023-04-25T12:45:47;2.33;;;2.13;;
12880;SDS011;6508;53.786;9.996;2023-04-25T12:48:15;2.13;;;1.92;;
12880;SDS011;6508;53.786;9.996;2023-04-25T12:50:44;4.53;;;2.20;;
12880;SDS011;6508;53.786;9.996;2023-04-25T12:53:15;2.58;;;1.80;;
12880;SDS011;6508;53.786;9.996;2023-04-25T12:55:43;2.30;;;1.90;;
12880;SDS011;6508;53.786;9.996;2023-04-25T12:58:12;2.92;;;2.38;;
12880;SDS011;6508;53.786;9.996;2023-04-25T13:00:40;2.28;;;1.90;;
12880;SDS011;6508;53.786;9.996;2023-04-25T13:03:08;3.05;;;2.10;;
12880;SDS011;6508;53.786;9.996;2023-04-25T13:05:37;4.63;;;2.15;;
12880;SDS011;6508;53.786;9.996;2023-04-25T13:08:06;2.60;;;2.40;;
12880;SDS011;6508;53.786;9.996;2023-04-25T13:10:35;4.35;;;2.20;;
12880;SDS011;6508;53.786;9.996;2023-04-25T13:13:05;2.40;;;2.20;;
12880;SDS011;6508;53.786;9.996;2023-04-25T13:15:32;6.70;;;2.60;;
12880;SDS011;6508;53.786;9.996;2023-04-25T13:18:00;5.03;;;2.42;;
12880;SDS011;6508;53.786;9.996;2023-04-25T13:20:28;2.42;;;2.22;;
12880;SDS011;6508;53.786;9.996;2023-04-25T13:22:56;3.45;;;2.40;;
12880;SDS011;6508;53.786;9.996;2023-04-25T13:25:27;6.30;;;2.40;;
12880;SDS011;6508;53.786;9.996;2023-04-25T13:27:56;3.85;;;2.55;;
12880;SDS011;6508;53.786;9.996;2023-04-25T13:30:24;3.50;;;2.40;;
12880;SDS011;6508;53.786;9.996;2023-04-25T13:32:52;3.33;;;2.92;;
12880;SDS011;6508;53.786;9.996;2023-04-25T13:35:23;5.80;;;2.60;;
12880;SDS011;6508;53.786;9.996;2023-04-25T13:37:50;2.40;;;2.10;;
12880;SDS011;6508;53.786;9.996;2023-04-25T13:40:18;3.67;;;2.78;;
12880;SDS011;6508;53.786;9.996;2023-04-25T13:42:50;5.85;;;2.58;;
12880;SDS011;6508;53.786;9.996;2023-04-25T13:45:18;6.10;;;2.67;;
12880;SDS011;6508;53.786;9.996;2023-04-25T13:47:46;3.40;;;2.25;;
12880;SDS011;6508;53.786;9.996;2023-04-25T13:50:15;4.68;;;2.38;;
12880;SDS011;6508;53.786;9.996;2023-04-25T13:52:43;4.45;;;2.40;;
12880;SDS011;6508;53.786;9.996;2023-04-25T13:55:11;2.63;;;2.25;;
12880;SDS011;6508;53.786;9.996;2023-04-25T13:57:39;2.05;;;1.92;;
12880;SDS011;6508;53.786;9.996;2023-04-25T14:00:09;4.78;;;2.08;;
12880;SDS011;6508;53.786;9.996;2023-04-25T14:02:37;2.97;;;2.03;;
12880;SDS011;6508;53.786;9.996;2023-04-25T14:05:06;3.33;;;2.20;;
12880;SDS011;6508;53.786;9.996;2023-04-25T14:07:36;4.00;;;2.42;;
12880;SDS011;6508;53.786;9.996;2023-04-25T14:10:04;3.17;;;2.38;;
12880;SDS011;6508;53.786;9.996;2023-04-25T14:12:33;6.50;;;2.00;;
12880;SDS011;6508;53.786;9.996;2023-04-25T14:15:01;2.50;;;1.90;;
12880;SDS011;6508;53.786;9.996;2023-04-25T14:17:32;2.80;;;2.05;;
12880;SDS011;6508;53.786;9.996;2023-04-25T14:19:59;2.15;;;1.95;;
12880;SDS011;6508;53.786;9.996;2023-04-25T14:22:27;3.38;;;1.98;;
12880;SDS011;6508;53.786;9.996;2023-04-25T14:24:55;3.42;;;2.20;;
12880;SDS011;6508;53.786;9.996;2023-04-25T14:27:23;5.63;;;2.17;;
12880;SDS011;6508;53.786;9.996;2023-04-25T14:29:54;3.75;;;2.30;;
12880;SDS011;6508;53.786;9.996;2023-04-25T14:32:22;3.22;;;2.17;;
12880;SDS011;6508;53.786;9.996;2023-04-25T14:34:51;3.15;;;2.08;;
12880;SDS011;6508;53.786;9.996;2023-04-25T14:37:20;5.55;;;2.60;;
12880;SDS011;6508;53.786;9.996;2023-04-25T14:39:47;7.40;;;2.58;;
12880;SDS011;6508;53.786;9.996;2023-04-25T14:42:15;3.50;;;2.50;;
12880;SDS011;6508;53.786;9.996;2023-04-25T14:44:43;3.30;;;2.65;;
12880;SDS011;6508;53.786;9.996;2023-04-25T14:47:12;4.20;;;2.45;;
12880;SDS011;6508;53.786;9.996;2023-04-25T14:49:40;2.50;;;2.05;;
12880;SDS011;6508;53.786;9.996;2023-04-25T14:52:09;5.05;;;2.10;;
12880;SDS011;6508;53.786;9.996;2023-04-25T14:54:37;3.97;;;2.17;;
12880;SDS011;6508;53.786;9.996;2023-04-25T14:57:06;4.28;;;2.13;;
12880;SDS011;6508;53.786;9.996;2023-04-25T14:59:34;4.93;;;1.92;;
12880;SDS011;6508;53.786;9.996;2023-04-25T15:02:02;2.90;;;1.90;;
12880;SDS011;6508;53.786;9.996;2023-04-25T15:04:30;3.17;;;2.00;;
12880;SDS011;6508;53.786;9.996;2023-04-25T15:06:58;5.13;;;2.00;;
12880;SDS011;6508;53.786;9.996;2023-04-25T15:09:27;3.42;;;2.00;;
12880;SDS011;6508;53.786;9.996;2023-04-25T15:11:55;4.63;;;2.13;;
12880;SDS011;6508;53.786;9.996;2023-04-25T15:14:23;2.97;;;1.77;;
12880;SDS011;6508;53.786;9.996;2023-04-25T15:16:50;6.85;;;2.17;;
12880;SDS011;6508;53.786;9.996;2023-04-25T15:19:18;5.18;;;2.03;;
12880;SDS011;6508;53.786;9.996;2023-04-25T15:21:46;3.65;;;1.98;;